createdAt,value
2022-11-07T00:02:12.344Z,21.30
2022-11-07T00:04:40.596Z,22.50
2022-11-07T00:07:10.312Z,22.95
2022-11-07T00:09:38.302Z,22.55
2022-11-07T00:12:07.134Z,21.73
2022-11-07T00:14:35.293Z,22.65
2022-11-07T00:17:03.369Z,21.60
2022-11-07T00:19:31.607Z,20.88
2022-11-07T00:21:59.566Z,22.55
2022-11-07T00:24:28.949Z,22.08
2022-11-07T00:26:57.134Z,21.98
2022-11-07T00:29:25.256Z,21.25
2022-11-07T00:31:53.237Z,21.23
2022-11-07T00:34:21.219Z,22.88
2022-11-07T00:36:49.152Z,21.30
2022-11-07T00:39:17.384Z,21.58
2022-11-07T00:41:48.364Z,21.77
2022-11-07T00:44:16.755Z,22.45
2022-11-07T00:46:44.784Z,22.77
2022-11-07T00:49:12.910Z,22.38
2022-11-07T00:51:41.374Z,21.75
2022-11-07T00:54:09.553Z,22.83
2022-11-07T00:56:37.556Z,22.92
2022-11-07T00:59:08.129Z,22.95
2022-11-07T01:01:36.476Z,22.83
2022-11-07T01:04:21.957Z,22.23
2022-11-07T01:06:50.301Z,23.02
2022-11-07T01:09:20.156Z,22.30
2022-11-07T01:11:49.060Z,22.50
2022-11-07T01:14:20.999Z,22.98
2022-11-07T01:16:49.410Z,22.13
2022-11-07T01:19:17.793Z,21.65
2022-11-07T01:21:46.149Z,21.10
2022-11-07T01:24:15.316Z,22.70
2022-11-07T01:26:47.741Z,20.88
2022-11-07T01:29:16.379Z,21.65
2022-11-07T01:31:46.290Z,22.10
2022-11-07T01:34:14.482Z,21.10
2022-11-07T01:36:42.631Z,21.42
2022-11-07T01:39:10.962Z,22.08
2022-11-07T01:41:40.090Z,21.05
2022-11-07T01:44:48.708Z,21.52
2022-11-07T01:47:18.139Z,20.85
2022-11-07T01:49:46.635Z,20.77
2022-11-07T01:52:19.574Z,20.10
2022-11-07T01:54:53.025Z,21.50
2022-11-07T01:57:24.926Z,19.60
2022-11-07T01:59:59.667Z,21.65
2022-11-07T02:02:29.845Z,20.65
2022-11-07T02:05:00.522Z,20.60
2022-11-07T02:07:31.040Z,22.10
2022-11-07T02:09:59.363Z,21.17
2022-11-07T02:12:28.404Z,19.85
2022-11-07T02:14:57.570Z,20.48
2022-11-07T02:17:25.645Z,20.80
2022-11-07T02:19:56.724Z,19.95
2022-11-07T02:22:34.462Z,19.48
2022-11-07T02:25:09.060Z,20.60
2022-11-07T02:27:37.989Z,20.05
2022-11-07T02:30:08.854Z,19.77
2022-11-07T02:32:36.825Z,21.10
2022-11-07T02:35:08.358Z,19.77
2022-11-07T02:37:40.648Z,19.80
2022-11-07T02:40:11.543Z,19.83
2022-11-07T02:42:46.326Z,20.33
2022-11-07T02:45:19.267Z,20.13
2022-11-07T02:47:47.366Z,19.42
2022-11-07T02:50:16.937Z,20.08
2022-11-07T02:52:44.932Z,20.13
2022-11-07T02:55:15.506Z,19.60
2022-11-07T02:57:43.934Z,18.75
2022-11-07T03:00:13.829Z,18.60
2022-11-07T03:02:46.911Z,20.23
2022-11-07T03:05:16.510Z,18.17
2022-11-07T03:07:45.825Z,18.38
2022-11-07T03:10:16.356Z,18.25
2022-11-07T03:12:44.780Z,18.00
2022-11-07T03:15:13.863Z,17.95
2022-11-07T03:17:42.037Z,18.30
2022-11-07T03:20:11.264Z,17.45
2022-11-07T03:22:39.825Z,17.40
2022-11-07T03:25:08.860Z,16.25
2022-11-07T03:27:46.108Z,17.73
2022-11-07T03:30:14.163Z,16.08
2022-11-07T03:32:42.231Z,16.30
2022-11-07T03:35:11.330Z,14.73
2022-11-07T03:37:42.039Z,15.18
2022-11-07T03:40:10.742Z,15.05
2022-11-07T03:42:44.152Z,15.10
2022-11-07T03:45:13.861Z,14.93
2022-11-07T03:47:43.337Z,15.50
2022-11-07T03:50:13.976Z,14.75
2022-11-07T03:52:42.055Z,14.48
2022-11-07T03:55:15.935Z,13.13
2022-11-07T03:57:46.043Z,14.98
2022-11-07T04:00:16.242Z,14.15
2022-11-07T04:02:44.595Z,14.07
2022-11-07T04:05:12.974Z,13.88
2022-11-07T04:07:41.191Z,13.98
2022-11-07T04:10:09.498Z,12.95
2022-11-07T04:12:54.945Z,13.73
2022-11-07T04:15:41.988Z,14.07
2022-11-07T04:18:12.518Z,13.05
2022-11-07T04:20:40.688Z,13.20
2022-11-07T04:23:08.661Z,13.63
2022-11-07T04:25:53.976Z,12.90
2022-11-07T04:28:22.314Z,12.95
2022-11-07T04:30:51.967Z,13.68
2022-11-07T04:33:19.988Z,13.10
2022-11-07T04:35:48.087Z,12.93
2022-11-07T04:38:16.101Z,12.10
2022-11-07T04:40:44.093Z,13.25
2022-11-07T04:43:12.227Z,13.77
2022-11-07T04:45:40.565Z,12.50
2022-11-07T04:48:12.658Z,13.43
2022-11-07T04:50:43.767Z,12.15
2022-11-07T04:53:14.543Z,13.05
2022-11-07T04:55:43.650Z,13.52
2022-11-07T04:58:12.014Z,13.10
2022-11-07T05:00:40.050Z,12.43
2022-11-07T05:03:10.054Z,12.60
2022-11-07T05:05:38.178Z,12.80
2022-11-07T05:08:06.618Z,11.88
2022-11-07T05:10:36.663Z,12.45
2022-11-07T05:13:04.713Z,11.93
2022-11-07T05:15:32.683Z,12.43
2022-11-07T05:18:00.635Z,11.93
2022-11-07T05:20:32.481Z,12.07
2022-11-07T05:23:15.121Z,11.88
2022-11-07T05:25:45.244Z,12.27
2022-11-07T05:28:15.056Z,11.93
2022-11-07T05:30:44.566Z,11.02
2022-11-07T05:33:15.614Z,10.85
2022-11-07T05:35:46.630Z,11.82
2022-11-07T05:38:14.660Z,11.45
2022-11-07T05:40:43.352Z,11.20
2022-11-07T05:43:13.398Z,10.95
2022-11-07T05:45:43.810Z,10.95
2022-11-07T05:48:14.762Z,11.00
2022-11-07T05:50:42.739Z,11.13
2022-11-07T05:53:12.428Z,10.85
2022-11-07T05:55:40.699Z,10.18
2022-11-07T05:58:10.547Z,11.10
2022-11-07T06:00:38.579Z,10.32
2022-11-07T06:03:06.787Z,10.10
2022-11-07T06:05:35.145Z,10.40
2022-11-07T06:08:03.359Z,10.60
2022-11-07T06:10:32.860Z,10.18
2022-11-07T06:13:01.935Z,9.82
2022-11-07T06:15:33.406Z,12.55
2022-11-07T06:18:02.054Z,10.38
2022-11-07T06:20:31.085Z,9.38
2022-11-07T06:23:00.061Z,12.45
2022-11-07T06:25:28.391Z,10.95
2022-11-07T06:28:02.446Z,12.43
2022-11-07T06:30:31.080Z,12.43
2022-11-07T06:33:02.088Z,13.18
2022-11-07T06:35:30.607Z,12.27
2022-11-07T06:37:58.623Z,13.15
2022-11-07T06:40:26.729Z,13.55
2022-11-07T06:42:54.678Z,11.68
2022-11-07T06:45:23.939Z,11.45
2022-11-07T06:47:52.038Z,11.38
2022-11-07T06:50:19.977Z,11.27
2022-11-07T06:52:47.966Z,10.88
2022-11-07T06:55:16.113Z,12.00
2022-11-07T06:57:44.738Z,10.18
2022-11-07T07:00:13.724Z,11.45
2022-11-07T07:02:58.084Z,9.77
2022-11-07T07:05:29.217Z,9.98
2022-11-07T07:07:57.550Z,10.80
2022-11-07T07:10:26.142Z,10.10
2022-11-07T07:12:54.337Z,12.38
2022-11-07T07:15:22.363Z,10.32
2022-11-07T07:17:51.707Z,10.65
2022-11-07T07:20:19.955Z,14.32
2022-11-07T07:22:51.653Z,9.95
2022-11-07T07:25:27.407Z,11.80
2022-11-07T07:27:55.732Z,11.07
2022-11-07T07:30:23.709Z,11.52
2022-11-07T07:32:53.100Z,12.00
2022-11-07T07:35:21.971Z,11.88
2022-11-07T07:37:51.813Z,11.85
2022-11-07T07:40:20.675Z,9.20
2022-11-07T07:42:49.156Z,8.30
2022-11-07T07:45:17.577Z,9.50
2022-11-07T07:47:46.071Z,10.57
2022-11-07T07:50:17.518Z,10.38
2022-11-07T07:52:45.441Z,8.57
2022-11-07T07:55:16.053Z,9.10
2022-11-07T07:57:44.440Z,8.93
2022-11-07T08:00:13.738Z,9.65
2022-11-07T08:02:43.949Z,7.85
2022-11-07T08:05:12.956Z,8.10
2022-11-07T08:07:50.112Z,6.53
2022-11-07T08:13:07.355Z,7.70
2022-11-07T08:15:35.547Z,9.15
2022-11-07T08:18:04.097Z,9.20
2022-11-07T08:20:32.217Z,8.85
2022-11-07T08:23:09.810Z,10.13
2022-11-07T08:25:40.785Z,6.88
2022-11-07T08:28:08.929Z,7.78
2022-11-07T08:30:37.232Z,6.78
2022-11-07T08:33:05.485Z,5.28
2022-11-07T08:35:35.764Z,5.90
2022-11-07T08:38:09.699Z,6.72
2022-11-07T08:40:37.785Z,6.38
2022-11-07T08:43:05.865Z,6.72
2022-11-07T08:45:33.851Z,5.53
2022-11-07T08:48:01.952Z,5.50
2022-11-07T08:50:30.088Z,5.00
2022-11-07T08:53:02.733Z,5.40
2022-11-07T08:55:36.091Z,5.05
2022-11-07T08:58:05.658Z,5.20
2022-11-07T09:00:34.795Z,4.68
2022-11-07T09:05:52.377Z,4.32
2022-11-07T09:08:20.502Z,4.72
2022-11-07T09:10:49.823Z,4.75
2022-11-07T09:13:18.136Z,4.30
2022-11-07T09:15:51.079Z,4.22
2022-11-07T09:18:20.338Z,4.90
2022-11-07T09:20:48.429Z,4.53
2022-11-07T09:23:16.714Z,4.25
2022-11-07T09:25:49.350Z,4.53
2022-11-07T09:28:17.517Z,3.90
2022-11-07T09:30:45.686Z,3.85
2022-11-07T09:33:14.110Z,4.65
2022-11-07T09:35:42.592Z,4.18
2022-11-07T09:38:14.430Z,4.10
2022-11-07T09:40:49.730Z,5.65
2022-11-07T09:43:49.017Z,3.38
2022-11-07T09:46:28.341Z,3.92
2022-11-07T09:49:02.066Z,4.05
2022-11-07T09:51:36.644Z,4.50
2022-11-07T09:54:11.415Z,4.07
2022-11-07T09:56:43.441Z,4.32
2022-11-07T09:59:20.558Z,4.93
2022-11-07T10:01:48.887Z,3.85
2022-11-07T10:04:27.113Z,4.10
2022-11-07T10:07:01.045Z,3.70
2022-11-07T10:09:39.796Z,4.00
2022-11-07T10:12:19.711Z,3.55
2022-11-07T10:15:01.658Z,3.40
2022-11-07T10:17:36.724Z,3.42
2022-11-07T10:20:24.751Z,4.07
2022-11-07T10:23:08.709Z,3.83
2022-11-07T10:25:44.764Z,3.25
2022-11-07T10:28:17.778Z,3.35
2022-11-07T10:30:50.286Z,3.22
2022-11-07T10:33:31.205Z,3.55
2022-11-07T10:36:03.152Z,3.28
2022-11-07T10:38:34.823Z,3.53
2022-11-07T10:41:03.174Z,3.17
2022-11-07T10:43:37.809Z,2.90
2022-11-07T10:46:15.463Z,3.50
2022-11-07T10:48:55.377Z,3.15
2022-11-07T10:51:35.336Z,3.65
2022-11-07T10:54:03.590Z,3.15
2022-11-07T10:56:33.946Z,3.90
2022-11-07T10:59:13.470Z,2.80
2022-11-07T11:01:43.274Z,2.38
2022-11-07T11:04:22.232Z,2.85
2022-11-07T11:06:58.813Z,2.42
2022-11-07T11:09:32.136Z,2.85
2022-11-07T11:12:05.262Z,2.92
2022-11-07T11:14:33.754Z,3.17
2022-11-07T11:17:03.604Z,2.50
2022-11-07T11:19:40.311Z,2.97
2022-11-07T11:22:17.396Z,2.95
2022-11-07T11:24:45.583Z,2.50
2022-11-07T11:27:17.785Z,3.55
2022-11-07T11:29:53.147Z,2.63
2022-11-07T11:32:28.216Z,2.65
2022-11-07T11:35:25.130Z,3.53
2022-11-07T11:38:01.223Z,3.38
2022-11-07T11:40:33.709Z,2.92
2022-11-07T11:43:15.648Z,3.00
2022-11-07T11:45:54.986Z,2.90
2022-11-07T11:48:26.687Z,2.90
2022-11-07T11:51:00.710Z,2.85
2022-11-07T11:53:29.784Z,3.35
2022-11-07T11:56:18.189Z,3.03
2022-11-07T11:58:54.694Z,3.53
2022-11-07T12:01:33.844Z,2.40
2022-11-07T12:04:31.296Z,3.03
2022-11-07T12:07:06.944Z,2.85
2022-11-07T12:09:44.218Z,3.15
2022-11-07T12:12:31.091Z,3.17
2022-11-07T12:15:30.019Z,2.90
2022-11-07T12:18:06.690Z,2.90
2022-11-07T12:20:46.742Z,4.40
2022-11-07T12:23:25.877Z,3.70
2022-11-07T12:26:01.608Z,4.32
2022-11-07T12:28:47.339Z,5.10
2022-11-07T12:31:32.994Z,2.80
2022-11-07T12:34:10.028Z,2.80
2022-11-07T12:36:52.894Z,3.00
2022-11-07T12:39:42.770Z,3.03
2022-11-07T12:42:21.953Z,2.35
2022-11-07T12:45:01.637Z,2.80
2022-11-07T12:47:46.440Z,3.78
2022-11-07T12:50:24.849Z,3.10
2022-11-07T12:53:07.769Z,2.30
2022-11-07T12:55:43.147Z,3.38
2022-11-07T12:58:19.192Z,2.60
2022-11-07T13:00:48.372Z,2.63
2022-11-07T13:03:38.153Z,3.20
2022-11-07T13:06:15.549Z,3.30
2022-11-07T13:08:54.174Z,3.30
2022-11-07T13:11:25.483Z,3.45
2022-11-07T13:14:03.243Z,3.50
2022-11-07T13:16:33.066Z,2.70
2022-11-07T13:19:10.662Z,3.50
2022-11-07T13:21:43.332Z,3.20
2022-11-07T13:24:21.573Z,3.15
2022-11-07T13:26:50.032Z,4.53
2022-11-07T13:29:28.293Z,3.45
2022-11-07T13:32:08.513Z,3.55
2022-11-07T13:34:58.298Z,3.63
2022-11-07T13:37:29.689Z,3.30
2022-11-07T13:40:04.465Z,3.92
2022-11-07T13:42:36.799Z,3.30
2022-11-07T13:45:26.811Z,2.90
2022-11-07T13:48:00.684Z,3.90
2022-11-07T13:50:40.135Z,3.47
2022-11-07T13:53:17.761Z,3.40
2022-11-07T13:55:56.687Z,4.55
2022-11-07T13:58:29.140Z,3.78
2022-11-07T14:01:03.489Z,3.88
2022-11-07T14:03:31.597Z,4.22
2022-11-07T14:05:59.824Z,4.47
2022-11-07T14:08:32.505Z,3.80
2022-11-07T14:11:02.176Z,3.88
2022-11-07T14:13:37.037Z,3.67
2022-11-07T14:16:18.684Z,4.53
2022-11-07T14:18:49.550Z,5.65
2022-11-07T14:21:21.959Z,6.07
2022-11-07T14:23:50.299Z,5.05
2022-11-07T14:26:23.287Z,4.60
2022-11-07T14:28:51.692Z,5.50
2022-11-07T14:31:22.263Z,7.60
2022-11-07T14:33:51.614Z,5.40
2022-11-07T14:36:23.177Z,8.07
2022-11-07T14:38:56.310Z,5.47
2022-11-07T14:41:25.783Z,4.88
2022-11-07T14:43:54.650Z,5.57
2022-11-07T14:46:25.256Z,5.25
2022-11-07T14:48:54.526Z,4.38
2022-11-07T14:51:25.858Z,4.78
2022-11-07T14:54:04.720Z,4.00
2022-11-07T14:56:38.816Z,4.40
2022-11-07T14:59:12.435Z,4.88
2022-11-07T15:01:51.871Z,4.88
2022-11-07T15:04:37.225Z,6.68
2022-11-07T15:07:14.201Z,5.30
2022-11-07T15:09:46.813Z,4.47
2022-11-07T15:12:19.969Z,4.93
2022-11-07T15:15:01.629Z,4.95
2022-11-07T15:17:30.696Z,6.22
2022-11-07T15:20:02.529Z,5.78
2022-11-07T15:22:36.696Z,5.30
2022-11-07T15:25:05.602Z,4.90
2022-11-07T15:27:40.811Z,4.50
2022-11-07T15:30:34.673Z,4.47
2022-11-07T15:33:02.939Z,6.32
2022-11-07T15:35:43.948Z,4.93
2022-11-07T15:38:22.656Z,4.43
2022-11-07T15:40:54.656Z,4.38
2022-11-07T15:43:24.605Z,5.35
2022-11-07T15:45:54.451Z,5.22
2022-11-07T15:48:24.695Z,3.85
2022-11-07T15:50:52.820Z,5.25
2022-11-07T15:53:22.777Z,6.07
2022-11-07T15:55:53.277Z,4.65
2022-11-07T15:58:25.229Z,3.92
2022-11-07T16:00:53.643Z,6.10
2022-11-07T16:03:25.618Z,4.72
2022-11-07T16:05:58.924Z,5.13
2022-11-07T16:08:31.184Z,5.00
2022-11-07T16:11:01.790Z,5.80
2022-11-07T16:13:31.598Z,4.47
2022-11-07T16:16:02.538Z,4.15
2022-11-07T16:18:36.285Z,5.13
2022-11-07T16:21:04.820Z,5.78
2022-11-07T16:23:33.867Z,5.82
2022-11-07T16:26:02.866Z,5.25
2022-11-07T16:28:35.943Z,4.45
2022-11-07T16:31:08.864Z,5.03
2022-11-07T16:33:40.261Z,3.83
2022-11-07T16:36:21.113Z,5.68
2022-11-07T16:38:51.204Z,4.40
2022-11-07T16:41:20.315Z,4.63
2022-11-07T16:43:50.586Z,4.10
2022-11-07T16:46:21.243Z,4.40
2022-11-07T16:48:52.414Z,4.57
2022-11-07T16:51:23.958Z,3.95
2022-11-07T16:53:51.968Z,4.20
2022-11-07T16:56:25.275Z,4.00
2022-11-07T16:58:55.599Z,4.32
2022-11-07T17:01:24.913Z,4.68
2022-11-07T17:03:54.110Z,6.00
2022-11-07T17:06:27.942Z,9.05
2022-11-07T17:09:03.338Z,4.68
2022-11-07T17:11:35.563Z,6.18
2022-11-07T17:14:05.359Z,5.18
2022-11-07T17:16:36.558Z,4.80
2022-11-07T17:19:07.499Z,6.15
2022-11-07T17:21:37.881Z,6.10
2022-11-07T17:24:07.477Z,6.95
2022-11-07T17:26:38.744Z,6.88
2022-11-07T17:29:09.564Z,11.82
2022-11-07T17:31:37.679Z,5.68
2022-11-07T17:34:06.048Z,5.32
2022-11-07T17:36:38.187Z,6.93
2022-11-07T17:39:11.133Z,4.90
2022-11-07T17:41:40.232Z,5.13
2022-11-07T17:44:09.949Z,4.82
2022-11-07T17:46:41.025Z,5.57
2022-11-07T17:49:11.110Z,4.95
2022-11-07T17:51:40.372Z,4.82
2022-11-07T17:54:09.248Z,4.97
2022-11-07T17:56:37.660Z,4.75
2022-11-07T17:59:07.531Z,4.32
2022-11-07T18:01:39.299Z,8.48
2022-11-07T18:04:09.086Z,4.28
2022-11-07T18:06:38.266Z,4.78
2022-11-07T18:09:08.408Z,5.70
2022-11-07T18:11:37.485Z,5.38
2022-11-07T18:14:05.529Z,5.63
2022-11-07T18:16:37.342Z,5.57
2022-11-07T18:19:06.773Z,6.85
2022-11-07T18:21:34.832Z,7.10
2022-11-07T18:24:02.885Z,6.32
2022-11-07T18:26:33.323Z,5.13
2022-11-07T18:29:03.820Z,4.15
2022-11-07T18:31:32.111Z,4.30
2022-11-07T18:34:04.128Z,5.15
2022-11-07T18:36:35.089Z,4.37
2022-11-07T18:39:03.752Z,4.65
2022-11-07T18:41:34.100Z,4.97
2022-11-07T18:44:05.072Z,4.85
2022-11-07T18:46:33.922Z,5.97
2022-11-07T18:49:03.788Z,5.07
2022-11-07T18:51:32.588Z,6.50
2022-11-07T18:54:02.056Z,6.82
2022-11-07T18:56:30.411Z,6.13
2022-11-07T18:58:58.780Z,5.60
2022-11-07T19:01:29.130Z,6.35
2022-11-07T19:03:58.318Z,6.50
2022-11-07T19:06:31.483Z,7.13
2022-11-07T19:09:00.232Z,6.88
2022-11-07T19:11:30.757Z,7.13
2022-11-07T19:14:01.673Z,7.63
2022-11-07T19:16:30.718Z,6.32
2022-11-07T19:19:01.044Z,6.30
2022-11-07T19:21:30.555Z,7.30
2022-11-07T19:23:58.629Z,6.43
2022-11-07T19:26:29.033Z,7.50
2022-11-07T19:28:58.720Z,6.97
2022-11-07T19:31:32.062Z,7.88
2022-11-07T19:34:02.664Z,6.55
2022-11-07T19:36:32.942Z,6.63
2022-11-07T19:39:03.147Z,6.38
2022-11-07T19:41:31.402Z,6.57
2022-11-07T19:44:01.716Z,6.20
2022-11-07T19:46:29.731Z,6.20
2022-11-07T19:48:57.786Z,5.75
2022-11-07T19:51:28.219Z,6.38
2022-11-07T19:53:59.037Z,5.55
2022-11-07T19:56:28.749Z,5.40
2022-11-07T19:58:56.803Z,5.13
2022-11-07T20:01:27.623Z,6.15
2022-11-07T20:03:56.644Z,5.38
2022-11-07T20:06:30.403Z,5.20
2022-11-07T20:09:00.596Z,4.65
2022-11-07T20:11:29.393Z,5.40
2022-11-07T20:14:03.038Z,4.82
2022-11-07T20:16:32.576Z,6.57
2022-11-07T20:19:01.715Z,5.95
2022-11-07T20:21:30.393Z,5.78
2022-11-07T20:24:00.397Z,5.15
2022-11-07T20:26:30.176Z,9.50
2022-11-07T20:28:58.615Z,6.43
2022-11-07T20:31:28.765Z,7.68
2022-11-07T20:33:58.864Z,5.60
2022-11-07T20:36:27.592Z,7.57
2022-11-07T20:38:55.792Z,5.47
2022-11-07T20:41:27.984Z,5.95
2022-11-07T20:43:56.948Z,5.28
2022-11-07T20:46:25.066Z,4.40
2022-11-07T20:48:54.039Z,3.97
2022-11-07T20:51:25.151Z,4.82
2022-11-07T20:53:53.619Z,5.35
2022-11-07T20:56:22.735Z,6.50
2022-11-07T20:58:52.783Z,5.45
2022-11-07T21:01:22.880Z,5.55
2022-11-07T21:03:53.124Z,5.25
2022-11-07T21:06:21.524Z,4.70
2022-11-07T21:08:50.479Z,4.35
2022-11-07T21:11:18.721Z,4.68
2022-11-07T21:13:52.735Z,4.68
2022-11-07T21:16:23.374Z,4.80
2022-11-07T21:18:52.559Z,4.80
2022-11-07T21:21:22.874Z,4.88
2022-11-07T21:23:53.322Z,6.80
2022-11-07T21:26:23.841Z,5.80
2022-11-07T21:28:52.433Z,4.80
2022-11-07T21:31:24.877Z,5.22
2022-11-07T21:33:55.480Z,5.28
2022-11-07T21:36:26.474Z,4.57
2022-11-07T21:38:55.551Z,5.00
2022-11-07T21:41:23.654Z,5.20
2022-11-07T21:43:52.525Z,4.53
2022-11-07T21:46:24.062Z,4.82
2022-11-07T21:48:52.768Z,4.93
2022-11-07T21:51:22.641Z,5.28
2022-11-07T21:53:51.547Z,5.40
2022-11-07T21:56:22.513Z,5.20
2022-11-07T21:58:51.663Z,5.07
2022-11-07T22:01:21.598Z,4.38
2022-11-07T22:04:10.468Z,4.55
2022-11-07T22:06:41.432Z,5.13
2022-11-07T22:09:11.909Z,5.07
2022-11-07T22:11:42.875Z,5.03
2022-11-07T22:14:14.577Z,4.47
2022-11-07T22:16:43.353Z,4.53
2022-11-07T22:19:13.300Z,4.22
2022-11-07T22:21:44.746Z,4.63
2022-11-07T22:24:13.008Z,5.63
2022-11-07T22:26:41.035Z,4.88
2022-11-07T22:29:11.144Z,5.05
2022-11-07T22:31:40.192Z,4.95
2022-11-07T22:34:08.348Z,4.30
2022-11-07T22:36:38.388Z,4.20
2022-11-07T22:39:07.026Z,5.10
2022-11-07T22:41:35.166Z,4.75
2022-11-07T22:44:03.740Z,4.65
2022-11-07T22:46:32.392Z,5.10
2022-11-07T22:49:01.787Z,4.32
2022-11-07T22:51:34.562Z,5.07
2022-11-07T22:54:11.770Z,4.88
2022-11-07T22:56:43.896Z,5.65
2022-11-07T22:59:15.080Z,4.97
2022-11-07T23:01:44.916Z,4.60
2022-11-07T23:04:18.740Z,4.65
2022-11-07T23:06:47.250Z,4.88
2022-11-07T23:09:17.513Z,5.20
2022-11-07T23:11:47.419Z,4.38
2022-11-07T23:14:18.123Z,4.55
2022-11-07T23:16:47.953Z,3.90
2022-11-07T23:19:17.337Z,4.38
2022-11-07T23:21:45.298Z,4.70
2022-11-07T23:24:13.714Z,4.15
2022-11-07T23:26:43.293Z,5.65
2022-11-07T23:29:13.975Z,4.82
2022-11-07T23:31:43.000Z,5.13
2022-11-07T23:34:11.467Z,5.10
2022-11-07T23:36:40.818Z,4.45
2022-11-07T23:39:11.446Z,4.53
2022-11-07T23:41:39.434Z,4.53
2022-11-07T23:44:09.562Z,4.00
2022-11-07T23:46:55.251Z,4.30
2022-11-07T23:49:52.081Z,3.95
2022-11-07T23:52:20.086Z,4.53
2022-11-07T23:55:05.971Z,4.00
2022-11-07T23:57:58.021Z,4.68
